sensor_id;sensor_type;location;lat;lon;timestamp;P1;durP1;ratioP1;P2;durP2;ratioP2
65717;SDS011;52445;52.466;-1.016;2023-02-28T00:01:29;5.22;;;2.00;;
65717;SDS011;52445;52.466;-1.016;2023-02-28T00:03:56;3.22;;;1.63;;
65717;SDS011;52445;52.466;-1.016;2023-02-28T00:06:23;3.25;;;1.75;;
65717;SDS011;52445;52.466;-1.016;2023-02-28T00:08:53;4.82;;;1.70;;
65717;SDS011;52445;52.466;-1.016;2023-02-28T00:11:19;3.05;;;1.75;;
65717;SDS011;52445;52.466;-1.016;2023-02-28T00:13:47;3.13;;;1.67;;
65717;SDS011;52445;52.466;-1.016;2023-02-28T00:16:16;5.47;;;1.90;;
65717;SDS011;52445;52.466;-1.016;2023-02-28T00:18:45;3.85;;;1.85;;
65717;SDS011;52445;52.466;-1.016;2023-02-28T00:21:15;3.45;;;2.03;;
65717;SDS011;52445;52.466;-1.016;2023-02-28T00:23:42;3.15;;;1.50;;
65717;SDS011;52445;52.466;-1.016;2023-02-28T00:26:10;4.55;;;1.70;;
65717;SDS011;52445;52.466;-1.016;2023-02-28T00:28:36;3.40;;;1.55;;
65717;SDS011;52445;52.466;-1.016;2023-02-28T00:31:03;3.90;;;2.08;;
65717;SDS011;52445;52.466;-1.016;2023-02-28T00:33:30;2.92;;;1.70;;
65717;SDS011;52445;52.466;-1.016;2023-02-28T00:36:12;2.55;;;1.55;;
65717;SDS011;52445;52.466;-1.016;2023-02-28T00:38:39;2.85;;;1.58;;
65717;SDS011;52445;52.466;-1.016;2023-02-28T00:41:07;2.83;;;1.52;;
65717;SDS011;52445;52.466;-1.016;2023-02-28T00:43:35;3.70;;;1.63;;
65717;SDS011;52445;52.466;-1.016;2023-02-28T00:46:03;3.95;;;1.55;;
65717;SDS011;52445;52.466;-1.016;2023-02-28T00:48:31;4.05;;;1.40;;
65717;SDS011;52445;52.466;-1.016;2023-02-28T00:50:58;2.30;;;1.45;;
65717;SDS011;52445;52.466;-1.016;2023-02-28T00:53:25;2.17;;;1.05;;
65717;SDS011;52445;52.466;-1.016;2023-02-28T00:55:52;2.65;;;1.33;;
65717;SDS011;52445;52.466;-1.016;2023-02-28T00:58:19;2.28;;;1.15;;
65717;SDS011;52445;52.466;-1.016;2023-02-28T01:00:45;2.50;;;1.10;;
65717;SDS011;52445;52.466;-1.016;2023-02-28T01:03:16;4.60;;;1.30;;
65717;SDS011;52445;52.466;-1.016;2023-02-28T01:05:44;4.85;;;1.40;;
65717;SDS011;52445;52.466;-1.016;2023-02-28T01:08:12;3.13;;;1.35;;
65717;SDS011;52445;52.466;-1.016;2023-02-28T01:10:40;2.17;;;1.13;;
65717;SDS011;52445;52.466;-1.016;2023-02-28T01:13:06;4.30;;;1.33;;
65717;SDS011;52445;52.466;-1.016;2023-02-28T01:15:34;2.05;;;1.00;;
65717;SDS011;52445;52.466;-1.016;2023-02-28T01:18:00;4.03;;;1.40;;
65717;SDS011;52445;52.466;-1.016;2023-02-28T01:20:28;2.28;;;1.05;;
65717;SDS011;52445;52.466;-1.016;2023-02-28T01:22:56;2.90;;;1.25;;
65717;SDS011;52445;52.466;-1.016;2023-02-28T01:25:25;3.95;;;1.42;;
65717;SDS011;52445;52.466;-1.016;2023-02-28T01:27:53;2.55;;;1.08;;
65717;SDS011;52445;52.466;-1.016;2023-02-28T01:30:22;1.77;;;0.93;;
65717;SDS011;52445;52.466;-1.016;2023-02-28T01:32:50;2.53;;;1.30;;
65717;SDS011;52445;52.466;-1.016;2023-02-28T01:35:20;3.72;;;1.25;;
65717;SDS011;52445;52.466;-1.016;2023-02-28T01:37:49;3.53;;;1.27;;
65717;SDS011;52445;52.466;-1.016;2023-02-28T01:40:17;2.05;;;1.13;;
65717;SDS011;52445;52.466;-1.016;2023-02-28T01:42:45;3.08;;;1.55;;
65717;SDS011;52445;52.466;-1.016;2023-02-28T01:47:53;2.53;;;1.20;;
65717;SDS011;52445;52.466;-1.016;2023-02-28T01:50:27;3.30;;;1.77;;
65717;SDS011;52445;52.466;-1.016;2023-02-28T01:52:56;4.45;;;1.52;;
65717;SDS011;52445;52.466;-1.016;2023-02-28T01:55:27;2.88;;;1.75;;
65717;SDS011;52445;52.466;-1.016;2023-02-28T01:57:56;2.75;;;0.93;;
65717;SDS011;52445;52.466;-1.016;2023-02-28T02:00:25;3.65;;;1.60;;
65717;SDS011;52445;52.466;-1.016;2023-02-28T02:02:55;3.08;;;1.38;;
65717;SDS011;52445;52.466;-1.016;2023-02-28T02:05:26;3.55;;;1.50;;
65717;SDS011;52445;52.466;-1.016;2023-02-28T02:07:58;1.92;;;1.02;;
65717;SDS011;52445;52.466;-1.016;2023-02-28T02:10:34;3.65;;;1.58;;
65717;SDS011;52445;52.466;-1.016;2023-02-28T02:13:11;3.50;;;1.95;;
65717;SDS011;52445;52.466;-1.016;2023-02-28T02:18:58;2.83;;;1.05;;
65717;SDS011;52445;52.466;-1.016;2023-02-28T02:32:34;3.47;;;1.45;;
65717;SDS011;52445;52.466;-1.016;2023-02-28T02:35:21;5.57;;;3.47;;
65717;SDS011;52445;52.466;-1.016;2023-02-28T02:37:59;4.38;;;3.38;;
65717;SDS011;52445;52.466;-1.016;2023-02-28T02:40:46;3.72;;;1.58;;
65717;SDS011;52445;52.466;-1.016;2023-02-28T02:43:31;3.08;;;1.52;;
65717;SDS011;52445;52.466;-1.016;2023-02-28T02:46:04;4.13;;;1.80;;
65717;SDS011;52445;52.466;-1.016;2023-02-28T02:48:36;3.70;;;1.45;;
65717;SDS011;52445;52.466;-1.016;2023-02-28T02:51:07;4.45;;;1.30;;
65717;SDS011;52445;52.466;-1.016;2023-02-28T02:53:42;3.55;;;1.52;;
65717;SDS011;52445;52.466;-1.016;2023-02-28T02:56:19;3.40;;;1.45;;
65717;SDS011;52445;52.466;-1.016;2023-02-28T02:58:49;8.13;;;1.52;;
65717;SDS011;52445;52.466;-1.016;2023-02-28T03:01:21;6.40;;;1.50;;
65717;SDS011;52445;52.466;-1.016;2023-02-28T03:04:04;6.82;;;1.40;;
65717;SDS011;52445;52.466;-1.016;2023-02-28T03:06:34;2.67;;;1.35;;
65717;SDS011;52445;52.466;-1.016;2023-02-28T03:09:02;3.50;;;1.25;;
65717;SDS011;52445;52.466;-1.016;2023-02-28T03:11:29;2.67;;;1.25;;
65717;SDS011;52445;52.466;-1.016;2023-02-28T03:16:36;3.35;;;1.33;;
65717;SDS011;52445;52.466;-1.016;2023-02-28T03:27:20;1.75;;;0.80;;
65717;SDS011;52445;52.466;-1.016;2023-02-28T03:29:58;3.58;;;1.70;;
65717;SDS011;52445;52.466;-1.016;2023-02-28T03:32:39;6.60;;;2.60;;
65717;SDS011;52445;52.466;-1.016;2023-02-28T03:35:26;2.90;;;1.88;;
65717;SDS011;52445;52.466;-1.016;2023-02-28T03:38:02;3.25;;;2.25;;
65717;SDS011;52445;52.466;-1.016;2023-02-28T03:40:34;2.35;;;0.82;;
65717;SDS011;52445;52.466;-1.016;2023-02-28T03:43:07;3.70;;;1.80;;
65717;SDS011;52445;52.466;-1.016;2023-02-28T03:45:38;2.30;;;1.75;;
65717;SDS011;52445;52.466;-1.016;2023-02-28T03:48:11;2.53;;;1.85;;
65717;SDS011;52445;52.466;-1.016;2023-02-28T03:50:43;2.53;;;1.55;;
65717;SDS011;52445;52.466;-1.016;2023-02-28T03:53:14;2.45;;;1.42;;
65717;SDS011;52445;52.466;-1.016;2023-02-28T03:55:54;2.28;;;2.00;;
65717;SDS011;52445;52.466;-1.016;2023-02-28T04:01:11;2.90;;;0.52;;
65717;SDS011;52445;52.466;-1.016;2023-02-28T04:03:42;2.65;;;0.60;;
65717;SDS011;52445;52.466;-1.016;2023-02-28T04:06:13;2.08;;;1.23;;
65717;SDS011;52445;52.466;-1.016;2023-02-28T04:08:44;1.25;;;0.47;;
65717;SDS011;52445;52.466;-1.016;2023-02-28T04:13:49;5.45;;;2.15;;
65717;SDS011;52445;52.466;-1.016;2023-02-28T04:16:16;2.33;;;1.98;;
65717;SDS011;52445;52.466;-1.016;2023-02-28T04:18:59;3.70;;;2.30;;
65717;SDS011;52445;52.466;-1.016;2023-02-28T04:21:32;2.75;;;2.28;;
65717;SDS011;52445;52.466;-1.016;2023-02-28T04:24:01;3.20;;;2.28;;
65717;SDS011;52445;52.466;-1.016;2023-02-28T04:26:30;3.15;;;2.05;;
65717;SDS011;52445;52.466;-1.016;2023-02-28T04:28:58;3.08;;;2.50;;
65717;SDS011;52445;52.466;-1.016;2023-02-28T04:31:26;2.17;;;2.03;;
65717;SDS011;52445;52.466;-1.016;2023-02-28T04:33:53;1.95;;;1.60;;
65717;SDS011;52445;52.466;-1.016;2023-02-28T04:36:20;2.55;;;1.95;;
65717;SDS011;52445;52.466;-1.016;2023-02-28T04:38:49;1.95;;;1.63;;
65717;SDS011;52445;52.466;-1.016;2023-02-28T04:41:16;1.83;;;1.73;;
65717;SDS011;52445;52.466;-1.016;2023-02-28T04:43:43;1.83;;;0.70;;
65717;SDS011;52445;52.466;-1.016;2023-02-28T04:46:10;4.55;;;1.88;;
65717;SDS011;52445;52.466;-1.016;2023-02-28T04:48:37;2.10;;;1.88;;
65717;SDS011;52445;52.466;-1.016;2023-02-28T04:51:06;2.25;;;2.05;;
65717;SDS011;52445;52.466;-1.016;2023-02-28T04:53:35;2.92;;;2.30;;
65717;SDS011;52445;52.466;-1.016;2023-02-28T04:56:03;6.95;;;2.85;;
65717;SDS011;52445;52.466;-1.016;2023-02-28T04:58:30;4.50;;;2.10;;
65717;SDS011;52445;52.466;-1.016;2023-02-28T05:03:54;4.35;;;3.42;;
65717;SDS011;52445;52.466;-1.016;2023-02-28T05:06:23;7.00;;;3.55;;
65717;SDS011;52445;52.466;-1.016;2023-02-28T05:08:52;3.97;;;2.63;;
65717;SDS011;52445;52.466;-1.016;2023-02-28T05:13:55;6.28;;;2.05;;
65717;SDS011;52445;52.466;-1.016;2023-02-28T05:16:22;4.72;;;2.08;;
65717;SDS011;52445;52.466;-1.016;2023-02-28T05:18:49;4.28;;;1.73;;
65717;SDS011;52445;52.466;-1.016;2023-02-28T05:21:24;4.28;;;1.70;;
65717;SDS011;52445;52.466;-1.016;2023-02-28T05:23:58;5.40;;;1.88;;
65717;SDS011;52445;52.466;-1.016;2023-02-28T05:26:26;2.80;;;1.27;;
65717;SDS011;52445;52.466;-1.016;2023-02-28T05:28:54;4.15;;;1.77;;
65717;SDS011;52445;52.466;-1.016;2023-02-28T05:31:20;2.90;;;1.30;;
65717;SDS011;52445;52.466;-1.016;2023-02-28T05:33:47;3.75;;;1.42;;
65717;SDS011;52445;52.466;-1.016;2023-02-28T05:36:14;5.35;;;1.38;;
65717;SDS011;52445;52.466;-1.016;2023-02-28T05:38:41;4.18;;;1.52;;
65717;SDS011;52445;52.466;-1.016;2023-02-28T05:41:08;2.03;;;1.15;;
65717;SDS011;52445;52.466;-1.016;2023-02-28T05:43:36;3.00;;;1.27;;
65717;SDS011;52445;52.466;-1.016;2023-02-28T05:46:05;5.75;;;1.10;;
65717;SDS011;52445;52.466;-1.016;2023-02-28T05:48:33;3.03;;;1.10;;
65717;SDS011;52445;52.466;-1.016;2023-02-28T05:51:01;4.78;;;0.98;;
65717;SDS011;52445;52.466;-1.016;2023-02-28T05:53:29;4.82;;;1.35;;
65717;SDS011;52445;52.466;-1.016;2023-02-28T05:55:56;3.17;;;1.15;;
65717;SDS011;52445;52.466;-1.016;2023-02-28T05:58:23;2.63;;;1.10;;
65717;SDS011;52445;52.466;-1.016;2023-02-28T06:00:55;5.05;;;1.05;;
65717;SDS011;52445;52.466;-1.016;2023-02-28T06:03:22;2.33;;;1.10;;
65717;SDS011;52445;52.466;-1.016;2023-02-28T06:05:48;4.03;;;1.25;;
65717;SDS011;52445;52.466;-1.016;2023-02-28T06:08:16;2.67;;;1.33;;
65717;SDS011;52445;52.466;-1.016;2023-02-28T06:10:44;1.38;;;0.80;;
65717;SDS011;52445;52.466;-1.016;2023-02-28T06:13:11;2.88;;;1.23;;
65717;SDS011;52445;52.466;-1.016;2023-02-28T06:15:39;3.50;;;1.02;;
65717;SDS011;52445;52.466;-1.016;2023-02-28T06:18:05;2.83;;;1.42;;
65717;SDS011;52445;52.466;-1.016;2023-02-28T06:20:32;6.05;;;1.13;;
65717;SDS011;52445;52.466;-1.016;2023-02-28T06:22:59;2.90;;;1.20;;
65717;SDS011;52445;52.466;-1.016;2023-02-28T06:25:26;2.60;;;1.08;;
65717;SDS011;52445;52.466;-1.016;2023-02-28T06:27:54;3.50;;;1.30;;
65717;SDS011;52445;52.466;-1.016;2023-02-28T06:30:21;3.67;;;1.55;;
65717;SDS011;52445;52.466;-1.016;2023-02-28T06:32:51;6.53;;;1.42;;
65717;SDS011;52445;52.466;-1.016;2023-02-28T06:35:19;4.40;;;1.25;;
65717;SDS011;52445;52.466;-1.016;2023-02-28T06:37:46;4.65;;;1.63;;
65717;SDS011;52445;52.466;-1.016;2023-02-28T06:40:13;3.72;;;1.50;;
65717;SDS011;52445;52.466;-1.016;2023-02-28T06:42:40;3.80;;;1.63;;
65717;SDS011;52445;52.466;-1.016;2023-02-28T06:45:06;6.70;;;1.85;;
65717;SDS011;52445;52.466;-1.016;2023-02-28T06:47:36;4.47;;;1.90;;
65717;SDS011;52445;52.466;-1.016;2023-02-28T06:50:05;4.10;;;1.95;;
65717;SDS011;52445;52.466;-1.016;2023-02-28T06:52:32;7.25;;;1.85;;
65717;SDS011;52445;52.466;-1.016;2023-02-28T06:55:03;5.38;;;1.65;;
65717;SDS011;52445;52.466;-1.016;2023-02-28T06:57:31;5.57;;;1.75;;
65717;SDS011;52445;52.466;-1.016;2023-02-28T06:59:59;4.13;;;1.77;;
65717;SDS011;52445;52.466;-1.016;2023-02-28T07:02:29;6.00;;;1.88;;
65717;SDS011;52445;52.466;-1.016;2023-02-28T07:04:55;4.70;;;1.77;;
65717;SDS011;52445;52.466;-1.016;2023-02-28T07:07:22;6.07;;;2.42;;
65717;SDS011;52445;52.466;-1.016;2023-02-28T07:09:49;7.32;;;2.63;;
65717;SDS011;52445;52.466;-1.016;2023-02-28T07:12:15;7.40;;;2.67;;
65717;SDS011;52445;52.466;-1.016;2023-02-28T07:14:42;7.78;;;2.90;;
65717;SDS011;52445;52.466;-1.016;2023-02-28T07:17:09;9.68;;;3.42;;
65717;SDS011;52445;52.466;-1.016;2023-02-28T07:19:38;7.70;;;2.75;;
65717;SDS011;52445;52.466;-1.016;2023-02-28T07:22:05;9.57;;;3.78;;
65717;SDS011;52445;52.466;-1.016;2023-02-28T07:24:33;8.40;;;4.13;;
65717;SDS011;52445;52.466;-1.016;2023-02-28T07:27:00;6.20;;;2.30;;
65717;SDS011;52445;52.466;-1.016;2023-02-28T07:29:27;11.57;;;3.90;;
65717;SDS011;52445;52.466;-1.016;2023-02-28T07:31:54;10.43;;;4.00;;
65717;SDS011;52445;52.466;-1.016;2023-02-28T07:34:21;11.35;;;3.97;;
65717;SDS011;52445;52.466;-1.016;2023-02-28T07:36:48;10.93;;;4.10;;
65717;SDS011;52445;52.466;-1.016;2023-02-28T07:39:20;11.07;;;3.92;;
65717;SDS011;52445;52.466;-1.016;2023-02-28T07:41:47;9.63;;;4.00;;
65717;SDS011;52445;52.466;-1.016;2023-02-28T07:44:14;7.93;;;3.53;;
65717;SDS011;52445;52.466;-1.016;2023-02-28T07:46:40;10.13;;;4.43;;
65717;SDS011;52445;52.466;-1.016;2023-02-28T07:49:07;10.65;;;4.13;;
65717;SDS011;52445;52.466;-1.016;2023-02-28T07:51:34;13.75;;;5.00;;
65717;SDS011;52445;52.466;-1.016;2023-02-28T07:54:00;15.20;;;4.70;;
65717;SDS011;52445;52.466;-1.016;2023-02-28T07:56:27;10.68;;;3.67;;
65717;SDS011;52445;52.466;-1.016;2023-02-28T07:58:54;12.52;;;5.05;;
65717;SDS011;52445;52.466;-1.016;2023-02-28T08:01:21;13.65;;;4.80;;
65717;SDS011;52445;52.466;-1.016;2023-02-28T08:03:48;12.88;;;4.05;;
65717;SDS011;52445;52.466;-1.016;2023-02-28T08:06:16;13.50;;;4.35;;
65717;SDS011;52445;52.466;-1.016;2023-02-28T08:08:46;9.60;;;3.85;;
65717;SDS011;52445;52.466;-1.016;2023-02-28T08:11:14;14.82;;;4.97;;
65717;SDS011;52445;52.466;-1.016;2023-02-28T08:13:42;10.20;;;4.00;;
65717;SDS011;52445;52.466;-1.016;2023-02-28T08:16:10;14.80;;;5.03;;
65717;SDS011;52445;52.466;-1.016;2023-02-28T08:18:40;12.23;;;4.15;;
65717;SDS011;52445;52.466;-1.016;2023-02-28T08:21:07;11.40;;;3.90;;
65717;SDS011;52445;52.466;-1.016;2023-02-28T08:23:35;12.65;;;4.47;;
65717;SDS011;52445;52.466;-1.016;2023-02-28T08:26:02;13.27;;;4.53;;
65717;SDS011;52445;52.466;-1.016;2023-02-28T08:28:30;9.25;;;4.38;;
65717;SDS011;52445;52.466;-1.016;2023-02-28T08:30:57;18.25;;;4.07;;
65717;SDS011;52445;52.466;-1.016;2023-02-28T08:33:25;11.80;;;4.25;;
65717;SDS011;52445;52.466;-1.016;2023-02-28T08:35:54;10.15;;;4.18;;
65717;SDS011;52445;52.466;-1.016;2023-02-28T08:38:22;11.93;;;4.45;;
65717;SDS011;52445;52.466;-1.016;2023-02-28T08:40:49;12.00;;;4.20;;
65717;SDS011;52445;52.466;-1.016;2023-02-28T08:43:16;13.35;;;4.10;;
65717;SDS011;52445;52.466;-1.016;2023-02-28T08:45:42;11.52;;;4.38;;
65717;SDS011;52445;52.466;-1.016;2023-02-28T08:48:09;14.57;;;4.53;;
65717;SDS011;52445;52.466;-1.016;2023-02-28T08:50:36;11.50;;;4.10;;
65717;SDS011;52445;52.466;-1.016;2023-02-28T08:53:02;10.80;;;3.83;;
65717;SDS011;52445;52.466;-1.016;2023-02-28T08:55:29;10.52;;;4.22;;
65717;SDS011;52445;52.466;-1.016;2023-02-28T08:57:55;9.02;;;3.53;;
65717;SDS011;52445;52.466;-1.016;2023-02-28T09:00:22;13.70;;;4.60;;
65717;SDS011;52445;52.466;-1.016;2023-02-28T09:02:49;12.05;;;4.45;;
65717;SDS011;52445;52.466;-1.016;2023-02-28T09:05:16;10.27;;;3.40;;
65717;SDS011;52445;52.466;-1.016;2023-02-28T09:07:42;9.68;;;3.63;;
65717;SDS011;52445;52.466;-1.016;2023-02-28T09:10:09;9.52;;;2.95;;
65717;SDS011;52445;52.466;-1.016;2023-02-28T09:12:36;10.90;;;4.25;;
65717;SDS011;52445;52.466;-1.016;2023-02-28T09:15:02;11.35;;;3.53;;
65717;SDS011;52445;52.466;-1.016;2023-02-28T09:17:30;11.68;;;4.10;;
65717;SDS011;52445;52.466;-1.016;2023-02-28T09:19:56;11.65;;;4.03;;
65717;SDS011;52445;52.466;-1.016;2023-02-28T09:22:24;9.60;;;3.38;;
65717;SDS011;52445;52.466;-1.016;2023-02-28T09:24:51;11.65;;;3.92;;
65717;SDS011;52445;52.466;-1.016;2023-02-28T09:27:18;11.65;;;4.35;;
65717;SDS011;52445;52.466;-1.016;2023-02-28T09:29:44;8.90;;;3.55;;
65717;SDS011;52445;52.466;-1.016;2023-02-28T09:32:11;12.68;;;5.35;;
65717;SDS011;52445;52.466;-1.016;2023-02-28T09:34:37;10.63;;;3.53;;
65717;SDS011;52445;52.466;-1.016;2023-02-28T09:37:04;11.05;;;3.47;;
65717;SDS011;52445;52.466;-1.016;2023-02-28T09:39:31;8.38;;;2.95;;
65717;SDS011;52445;52.466;-1.016;2023-02-28T09:41:58;9.68;;;3.03;;
65717;SDS011;52445;52.466;-1.016;2023-02-28T09:44:42;8.55;;;3.00;;
65717;SDS011;52445;52.466;-1.016;2023-02-28T09:49:54;8.20;;;3.13;;
65717;SDS011;52445;52.466;-1.016;2023-02-28T09:52:26;7.63;;;3.13;;
65717;SDS011;52445;52.466;-1.016;2023-02-28T09:55:00;8.25;;;2.42;;
65717;SDS011;52445;52.466;-1.016;2023-02-28T09:57:42;6.40;;;2.75;;
65717;SDS011;52445;52.466;-1.016;2023-02-28T10:05:50;5.05;;;1.85;;
65717;SDS011;52445;52.466;-1.016;2023-02-28T10:08:25;5.90;;;2.35;;
65717;SDS011;52445;52.466;-1.016;2023-02-28T10:10:56;6.47;;;2.25;;
65717;SDS011;52445;52.466;-1.016;2023-02-28T10:13:32;5.38;;;2.20;;
65717;SDS011;52445;52.466;-1.016;2023-02-28T10:16:03;5.57;;;2.08;;
65717;SDS011;52445;52.466;-1.016;2023-02-28T10:18:46;7.13;;;2.30;;
65717;SDS011;52445;52.466;-1.016;2023-02-28T10:21:19;7.75;;;2.55;;
65717;SDS011;52445;52.466;-1.016;2023-02-28T10:23:52;7.95;;;2.28;;
65717;SDS011;52445;52.466;-1.016;2023-02-28T10:26:24;6.45;;;1.67;;
65717;SDS011;52445;52.466;-1.016;2023-02-28T10:28:55;5.47;;;1.92;;
65717;SDS011;52445;52.466;-1.016;2023-02-28T10:31:22;6.55;;;2.25;;
65717;SDS011;52445;52.466;-1.016;2023-02-28T10:33:51;5.25;;;1.85;;
65717;SDS011;52445;52.466;-1.016;2023-02-28T10:36:19;7.03;;;2.13;;
65717;SDS011;52445;52.466;-1.016;2023-02-28T10:38:46;6.40;;;2.22;;
65717;SDS011;52445;52.466;-1.016;2023-02-28T10:41:15;7.05;;;2.42;;
65717;SDS011;52445;52.466;-1.016;2023-02-28T10:43:53;6.70;;;2.25;;
65717;SDS011;52445;52.466;-1.016;2023-02-28T10:46:41;6.78;;;2.25;;
65717;SDS011;52445;52.466;-1.016;2023-02-28T10:49:13;8.07;;;3.35;;
65717;SDS011;52445;52.466;-1.016;2023-02-28T10:51:45;7.43;;;2.75;;
65717;SDS011;52445;52.466;-1.016;2023-02-28T10:54:16;9.35;;;3.22;;
65717;SDS011;52445;52.466;-1.016;2023-02-28T10:56:46;7.68;;;2.63;;
65717;SDS011;52445;52.466;-1.016;2023-02-28T10:59:50;9.63;;;3.90;;
65717;SDS011;52445;52.466;-1.016;2023-02-28T11:02:29;5.97;;;2.42;;
65717;SDS011;52445;52.466;-1.016;2023-02-28T11:04:59;4.75;;;2.63;;
65717;SDS011;52445;52.466;-1.016;2023-02-28T11:07:26;5.60;;;2.90;;
65717;SDS011;52445;52.466;-1.016;2023-02-28T11:10:06;6.63;;;3.17;;
65717;SDS011;52445;52.466;-1.016;2023-02-28T11:12:37;3.63;;;2.45;;
65717;SDS011;52445;52.466;-1.016;2023-02-28T11:17:57;4.15;;;3.13;;
65717;SDS011;52445;52.466;-1.016;2023-02-28T11:20:28;5.85;;;3.47;;
65717;SDS011;52445;52.466;-1.016;2023-02-28T11:22:58;3.50;;;2.75;;
65717;SDS011;52445;52.466;-1.016;2023-02-28T11:25:29;4.00;;;2.33;;
65717;SDS011;52445;52.466;-1.016;2023-02-28T11:28:00;3.58;;;1.63;;
65717;SDS011;52445;52.466;-1.016;2023-02-28T11:30:36;3.35;;;2.47;;
65717;SDS011;52445;52.466;-1.016;2023-02-28T11:35:57;3.38;;;3.05;;
65717;SDS011;52445;52.466;-1.016;2023-02-28T11:38:28;3.88;;;3.42;;
65717;SDS011;52445;52.466;-1.016;2023-02-28T11:41:03;3.15;;;2.38;;
65717;SDS011;52445;52.466;-1.016;2023-02-28T11:57:17;2.00;;;0.80;;
65717;SDS011;52445;52.466;-1.016;2023-02-28T12:00:01;3.00;;;1.58;;
65717;SDS011;52445;52.466;-1.016;2023-02-28T12:05:38;3.65;;;2.20;;
65717;SDS011;52445;52.466;-1.016;2023-02-28T12:11:16;2.35;;;1.52;;
65717;SDS011;52445;52.466;-1.016;2023-02-28T12:27:50;2.55;;;2.22;;
65717;SDS011;52445;52.466;-1.016;2023-02-28T12:30:21;6.45;;;3.83;;
65717;SDS011;52445;52.466;-1.016;2023-02-28T12:32:53;4.13;;;3.33;;
65717;SDS011;52445;52.466;-1.016;2023-02-28T12:35:25;6.32;;;4.20;;
65717;SDS011;52445;52.466;-1.016;2023-02-28T12:40:48;1.95;;;1.85;;
65717;SDS011;52445;52.466;-1.016;2023-02-28T12:43:20;3.05;;;2.65;;
65717;SDS011;52445;52.466;-1.016;2023-02-28T12:45:53;3.08;;;2.63;;
65717;SDS011;52445;52.466;-1.016;2023-02-28T12:48:42;2.95;;;1.98;;
65717;SDS011;52445;52.466;-1.016;2023-02-28T12:51:13;3.65;;;3.15;;
65717;SDS011;52445;52.466;-1.016;2023-02-28T13:10:38;5.85;;;2.80;;
65717;SDS011;52445;52.466;-1.016;2023-02-28T13:13:11;6.70;;;3.95;;
65717;SDS011;52445;52.466;-1.016;2023-02-28T13:15:41;5.45;;;2.35;;
65717;SDS011;52445;52.466;-1.016;2023-02-28T13:18:37;3.03;;;1.55;;
65717;SDS011;52445;52.466;-1.016;2023-02-28T13:35:34;5.75;;;2.85;;
65717;SDS011;52445;52.466;-1.016;2023-02-28T13:37:43;3.60;;;2.00;;
65717;SDS011;52445;52.466;-1.016;2023-02-28T13:42:47;5.90;;;2.72;;
65717;SDS011;52445;52.466;-1.016;2023-02-28T13:45:20;6.05;;;2.72;;
65717;SDS011;52445;52.466;-1.016;2023-02-28T13:50:45;4.13;;;2.05;;
65717;SDS011;52445;52.466;-1.016;2023-02-28T14:07:26;6.57;;;4.68;;
65717;SDS011;52445;52.466;-1.016;2023-02-28T14:18:14;4.75;;;3.53;;
65717;SDS011;52445;52.466;-1.016;2023-02-28T14:20:54;3.78;;;1.77;;
65717;SDS011;52445;52.466;-1.016;2023-02-28T14:29:11;4.20;;;1.52;;
65717;SDS011;52445;52.466;-1.016;2023-02-28T14:37:10;2.85;;;2.00;;
65717;SDS011;52445;52.466;-1.016;2023-02-28T14:39:43;2.78;;;1.88;;
65717;SDS011;52445;52.466;-1.016;2023-02-28T14:42:25;3.20;;;2.10;;
65717;SDS011;52445;52.466;-1.016;2023-02-28T14:44:56;3.25;;;2.08;;
65717;SDS011;52445;52.466;-1.016;2023-02-28T14:47:23;3.70;;;2.17;;
65717;SDS011;52445;52.466;-1.016;2023-02-28T14:49:54;3.78;;;2.85;;
65717;SDS011;52445;52.466;-1.016;2023-02-28T14:52:23;3.67;;;2.38;;
65717;SDS011;52445;52.466;-1.016;2023-02-28T14:54:53;3.35;;;2.47;;
65717;SDS011;52445;52.466;-1.016;2023-02-28T14:57:23;3.78;;;2.17;;
65717;SDS011;52445;52.466;-1.016;2023-02-28T15:02:41;4.57;;;2.25;;
65717;SDS011;52445;52.466;-1.016;2023-02-28T15:08:00;2.13;;;1.20;;
65717;SDS011;52445;52.466;-1.016;2023-02-28T15:10:37;2.83;;;1.50;;
65717;SDS011;52445;52.466;-1.016;2023-02-28T15:13:07;3.22;;;1.45;;
65717;SDS011;52445;52.466;-1.016;2023-02-28T15:15:42;3.55;;;1.20;;
65717;SDS011;52445;52.466;-1.016;2023-02-28T15:21:12;3.03;;;1.60;;
65717;SDS011;52445;52.466;-1.016;2023-02-28T15:23:45;3.80;;;1.90;;
65717;SDS011;52445;52.466;-1.016;2023-02-28T15:26:16;3.15;;;1.52;;
65717;SDS011;52445;52.466;-1.016;2023-02-28T15:28:57;3.35;;;1.77;;
65717;SDS011;52445;52.466;-1.016;2023-02-28T15:31:27;3.13;;;1.40;;
65717;SDS011;52445;52.466;-1.016;2023-02-28T15:34:15;3.03;;;1.40;;
65717;SDS011;52445;52.466;-1.016;2023-02-28T15:36:48;2.60;;;1.55;;
65717;SDS011;52445;52.466;-1.016;2023-02-28T15:39:20;2.75;;;1.77;;
65717;SDS011;52445;52.466;-1.016;2023-02-28T15:41:48;2.50;;;1.27;;
65717;SDS011;52445;52.466;-1.016;2023-02-28T15:44:24;2.33;;;1.40;;
65717;SDS011;52445;52.466;-1.016;2023-02-28T15:46:54;2.85;;;1.38;;
65717;SDS011;52445;52.466;-1.016;2023-02-28T15:49:34;3.90;;;2.33;;
65717;SDS011;52445;52.466;-1.016;2023-02-28T15:52:12;4.35;;;2.42;;
65717;SDS011;52445;52.466;-1.016;2023-02-28T15:54:42;2.90;;;1.15;;
65717;SDS011;52445;52.466;-1.016;2023-02-28T15:57:13;2.83;;;2.42;;
65717;SDS011;52445;52.466;-1.016;2023-02-28T15:59:48;2.88;;;2.42;;
65717;SDS011;52445;52.466;-1.016;2023-02-28T16:02:20;5.47;;;3.45;;
65717;SDS011;52445;52.466;-1.016;2023-02-28T16:04:57;4.05;;;3.05;;
65717;SDS011;52445;52.466;-1.016;2023-02-28T16:07:40;4.32;;;3.15;;
65717;SDS011;52445;52.466;-1.016;2023-02-28T16:10:10;3.13;;;1.65;;
65717;SDS011;52445;52.466;-1.016;2023-02-28T16:12:40;3.35;;;2.35;;
65717;SDS011;52445;52.466;-1.016;2023-02-28T16:15:25;2.13;;;0.98;;
65717;SDS011;52445;52.466;-1.016;2023-02-28T16:17:55;4.95;;;2.13;;
65717;SDS011;52445;52.466;-1.016;2023-02-28T16:20:24;4.78;;;3.03;;
65717;SDS011;52445;52.466;-1.016;2023-02-28T16:22:54;4.15;;;2.35;;
65717;SDS011;52445;52.466;-1.016;2023-02-28T16:25:23;2.83;;;2.33;;
65717;SDS011;52445;52.466;-1.016;2023-02-28T16:27:59;3.58;;;1.63;;
65717;SDS011;52445;52.466;-1.016;2023-02-28T16:30:28;3.90;;;2.60;;
65717;SDS011;52445;52.466;-1.016;2023-02-28T16:32:59;4.65;;;2.97;;
65717;SDS011;52445;52.466;-1.016;2023-02-28T16:35:26;4.72;;;2.15;;
65717;SDS011;52445;52.466;-1.016;2023-02-28T16:37:53;5.28;;;2.25;;
65717;SDS011;52445;52.466;-1.016;2023-02-28T16:40:21;4.60;;;2.63;;
65717;SDS011;52445;52.466;-1.016;2023-02-28T16:42:52;8.10;;;3.70;;
65717;SDS011;52445;52.466;-1.016;2023-02-28T16:47:49;2.25;;;1.38;;
65717;SDS011;52445;52.466;-1.016;2023-02-28T16:50:17;5.63;;;3.03;;
65717;SDS011;52445;52.466;-1.016;2023-02-28T16:52:46;3.92;;;1.88;;
65717;SDS011;52445;52.466;-1.016;2023-02-28T16:55:15;4.18;;;2.88;;
65717;SDS011;52445;52.466;-1.016;2023-02-28T16:57:42;4.35;;;3.00;;
65717;SDS011;52445;52.466;-1.016;2023-02-28T17:00:11;3.05;;;1.55;;
65717;SDS011;52445;52.466;-1.016;2023-02-28T17:02:39;3.22;;;2.50;;
65717;SDS011;52445;52.466;-1.016;2023-02-28T17:05:08;4.35;;;1.73;;
65717;SDS011;52445;52.466;-1.016;2023-02-28T17:07:37;5.00;;;3.40;;
65717;SDS011;52445;52.466;-1.016;2023-02-28T17:10:11;5.10;;;2.10;;
65717;SDS011;52445;52.466;-1.016;2023-02-28T17:12:41;2.15;;;1.08;;
65717;SDS011;52445;52.466;-1.016;2023-02-28T17:15:12;3.17;;;2.45;;
65717;SDS011;52445;52.466;-1.016;2023-02-28T17:17:41;2.70;;;2.40;;
65717;SDS011;52445;52.466;-1.016;2023-02-28T17:20:11;2.63;;;1.25;;
65717;SDS011;52445;52.466;-1.016;2023-02-28T17:22:40;3.20;;;1.10;;
65717;SDS011;52445;52.466;-1.016;2023-02-28T17:25:07;1.65;;;0.70;;
65717;SDS011;52445;52.466;-1.016;2023-02-28T17:27:35;3.88;;;1.02;;
65717;SDS011;52445;52.466;-1.016;2023-02-28T17:30:08;5.45;;;0.80;;
65717;SDS011;52445;52.466;-1.016;2023-02-28T17:32:45;1.10;;;0.70;;
65717;SDS011;52445;52.466;-1.016;2023-02-28T17:35:13;3.30;;;0.80;;
65717;SDS011;52445;52.466;-1.016;2023-02-28T17:37:40;2.08;;;1.38;;
65717;SDS011;52445;52.466;-1.016;2023-02-28T17:40:12;2.45;;;0.82;;
65717;SDS011;52445;52.466;-1.016;2023-02-28T17:42:42;0.98;;;0.20;;